Belford, United Kingdom
Current Conditions -  °F | °C
As of 8:50 PM on Wednesday 26 Nov 2014 (Local Time) from EGQM Reporting Station
Haze Haze  
Wind Chill: 45°   Ceiling: 2200
Heat Index: 45°   Visibility: 5mi
Dew Point: 45°   Wind: 2mph
Humidity: 100%   Direction: 260°W
Pressure: 29.83"   Gusts: NA
Location:  55.59°N, 1.82°W
Report Text: EGQM 262050Z AUTO 26002KT 8000 BR BKN022/// 07/07 Q1010
Loading
Personal Weather Stations






























Interactive Weather Map New forecast layout! Learn more

10-Day Weather Forecast

Advertisements
Track Severe Weather on mobile